Terminal Aerodrome Forecast
Issued by NWS

Home | Current Version | Previous Version | Text Only | Print | Product List | Glossary On
Versions: 1 2 3 4 5 6 7 8 9 10 11 12 13 14 15 16 17 18 19 20 21 22 23 24 25 26 27 28 29 30 31 32 33 34 35
000
FTUS43 KGRB 282339
TAFRHI
TAF
KRHI 282339Z 2900/2924 18008KT P6SM SCT060 SCT120
     FM290200 16006KT P6SM BKN150
     FM291100 15008KT 6SM -SHRA BR BKN035 OVC060
      TEMPO 2912/2916 4SM SHRA BR BKN015
     FM291700 21010G17KT P6SM VCSH BKN035 BKN050
      TEMPO 2917/2920 BKN025
     FM292000 26008KT P6SM -SHRA BKN035 OVC050
      TEMPO 2920/2924 3SM TSRA BKN020CB=

USA.gov is the U.S. government's official web portal to all federal, state and local government web resources and services.